sensor_id;sensor_type;location;lat;lon;timestamp;noise_LAeq;noise_LA_min;noise_LA_max;noise_LA01;noise_LA95
76338;Laerm;20358;50.272;19.026;2022-12-11T00:01:28;50.72;37.20;66.86;;
76338;Laerm;20358;50.272;19.026;2022-12-11T00:04:33;47.69;37.97;61.09;;
76338;Laerm;20358;50.272;19.026;2022-12-11T00:07:40;50.00;37.22;66.36;;
76338;Laerm;20358;50.272;19.026;2022-12-11T00:10:48;49.53;37.61;64.20;;
76338;Laerm;20358;50.272;19.026;2022-12-11T00:13:54;49.82;38.78;65.41;;
76338;Laerm;20358;50.272;19.026;2022-12-11T00:17:03;50.14;39.78;65.07;;
76338;Laerm;20358;50.272;19.026;2022-12-11T00:20:10;47.80;37.48;63.25;;
76338;Laerm;20358;50.272;19.026;2022-12-11T00:23:16;51.18;36.99;69.63;;
76338;Laerm;20358;50.272;19.026;2022-12-11T00:26:22;50.09;37.79;67.43;;
76338;Laerm;20358;50.272;19.026;2022-12-11T00:29:28;51.87;39.32;68.96;;
76338;Laerm;20358;50.272;19.026;2022-12-11T00:32:37;49.36;39.65;69.18;;
76338;Laerm;20358;50.272;19.026;2022-12-11T00:35:45;50.56;36.86;70.91;;
76338;Laerm;20358;50.272;19.026;2022-12-11T00:38:53;49.78;36.95;74.44;;
76338;Laerm;20358;50.272;19.026;2022-12-11T00:41:59;48.65;37.34;63.82;;
76338;Laerm;20358;50.272;19.026;2022-12-11T00:45:06;50.88;37.04;72.29;;
76338;Laerm;20358;50.272;19.026;2022-12-11T00:48:15;48.86;37.11;63.11;;
76338;Laerm;20358;50.272;19.026;2022-12-11T00:51:23;47.16;38.61;61.51;;
76338;Laerm;20358;50.272;19.026;2022-12-11T00:54:29;50.01;37.74;70.11;;
76338;Laerm;20358;50.272;19.026;2022-12-11T00:57:36;49.27;38.43;65.97;;
76338;Laerm;20358;50.272;19.026;2022-12-11T01:00:42;47.88;38.49;61.05;;
76338;Laerm;20358;50.272;19.026;2022-12-11T01:04:24;51.31;39.41;73.52;;
76338;Laerm;20358;50.272;19.026;2022-12-11T01:07:30;48.46;36.89;66.72;;
76338;Laerm;20358;50.272;19.026;2022-12-11T01:10:36;49.03;36.59;62.65;;
76338;Laerm;20358;50.272;19.026;2022-12-11T01:13:42;48.13;36.89;64.29;;
76338;Laerm;20358;50.272;19.026;2022-12-11T01:16:48;51.27;38.07;72.53;;
76338;Laerm;20358;50.272;19.026;2022-12-11T01:19:57;47.94;37.05;64.66;;
76338;Laerm;20358;50.272;19.026;2022-12-11T01:23:02;54.34;37.29;73.64;;
76338;Laerm;20358;50.272;19.026;2022-12-11T01:26:12;55.23;36.85;78.36;;
76338;Laerm;20358;50.272;19.026;2022-12-11T01:29:18;53.65;37.46;73.65;;
76338;Laerm;20358;50.272;19.026;2022-12-11T01:32:26;49.69;37.07;65.48;;
76338;Laerm;20358;50.272;19.026;2022-12-11T01:35:35;52.08;40.48;71.43;;
76338;Laerm;20358;50.272;19.026;2022-12-11T01:38:43;51.33;37.45;73.07;;
76338;Laerm;20358;50.272;19.026;2022-12-11T01:41:48;48.35;37.30;69.60;;
76338;Laerm;20358;50.272;19.026;2022-12-11T01:45:39;49.05;35.13;71.75;;
76338;Laerm;20358;50.272;19.026;2022-12-11T01:48:46;49.88;37.43;66.81;;
76338;Laerm;20358;50.272;19.026;2022-12-11T01:52:02;52.68;36.54;72.54;;
76338;Laerm;20358;50.272;19.026;2022-12-11T01:55:11;48.56;35.27;71.80;;
76338;Laerm;20358;50.272;19.026;2022-12-11T01:58:20;48.89;35.40;69.64;;
76338;Laerm;20358;50.272;19.026;2022-12-11T02:01:34;46.75;36.86;66.56;;
76338;Laerm;20358;50.272;19.026;2022-12-11T02:04:45;55.07;36.64;77.30;;
76338;Laerm;20358;50.272;19.026;2022-12-11T02:07:58;48.41;35.86;71.79;;
76338;Laerm;20358;50.272;19.026;2022-12-11T02:11:15;50.45;36.33;71.44;;
76338;Laerm;20358;50.272;19.026;2022-12-11T02:14:34;46.34;35.13;69.89;;
76338;Laerm;20358;50.272;19.026;2022-12-11T02:17:55;48.89;35.71;67.26;;
76338;Laerm;20358;50.272;19.026;2022-12-11T02:21:12;51.35;35.91;72.75;;
76338;Laerm;20358;50.272;19.026;2022-12-11T02:24:44;45.95;36.25;62.97;;
76338;Laerm;20358;50.272;19.026;2022-12-11T02:28:11;52.37;37.44;75.88;;
76338;Laerm;20358;50.272;19.026;2022-12-11T02:31:28;60.40;38.35;84.32;;
76338;Laerm;20358;50.272;19.026;2022-12-11T02:34:44;45.47;34.78;62.15;;
76338;Laerm;20358;50.272;19.026;2022-12-11T02:38:01;48.90;36.14;69.24;;
76338;Laerm;20358;50.272;19.026;2022-12-11T02:41:10;46.56;34.98;68.35;;
76338;Laerm;20358;50.272;19.026;2022-12-11T02:44:27;49.52;34.98;67.54;;
76338;Laerm;20358;50.272;19.026;2022-12-11T02:47:37;49.25;36.58;73.29;;
76338;Laerm;20358;50.272;19.026;2022-12-11T02:50:50;51.54;35.81;69.09;;
76338;Laerm;20358;50.272;19.026;2022-12-11T02:53:59;50.31;36.33;70.19;;
76338;Laerm;20358;50.272;19.026;2022-12-11T02:57:14;52.28;35.95;72.73;;
76338;Laerm;20358;50.272;19.026;2022-12-11T03:00:23;49.00;36.30;69.50;;
76338;Laerm;20358;50.272;19.026;2022-12-11T03:03:30;49.14;35.96;75.90;;
76338;Laerm;20358;50.272;19.026;2022-12-11T03:06:44;55.77;35.72;80.46;;
76338;Laerm;20358;50.272;19.026;2022-12-11T03:09:53;48.68;35.41;69.00;;
76338;Laerm;20358;50.272;19.026;2022-12-11T03:13:00;49.43;36.33;73.02;;
76338;Laerm;20358;50.272;19.026;2022-12-11T03:16:23;55.36;35.27;77.39;;
76338;Laerm;20358;50.272;19.026;2022-12-11T03:19:36;53.59;35.49;74.27;;
76338;Laerm;20358;50.272;19.026;2022-12-11T03:22:50;47.56;35.33;66.17;;
76338;Laerm;20358;50.272;19.026;2022-12-11T03:26:02;48.65;36.76;67.55;;
76338;Laerm;20358;50.272;19.026;2022-12-11T03:29:19;47.97;35.90;68.57;;
76338;Laerm;20358;50.272;19.026;2022-12-11T03:32:37;48.09;35.31;68.82;;
76338;Laerm;20358;50.272;19.026;2022-12-11T03:35:52;47.69;35.53;63.10;;
76338;Laerm;20358;50.272;19.026;2022-12-11T03:39:06;47.36;35.49;69.83;;
76338;Laerm;20358;50.272;19.026;2022-12-11T03:42:19;46.87;35.64;65.80;;
76338;Laerm;20358;50.272;19.026;2022-12-11T03:45:29;51.81;36.49;77.14;;
76338;Laerm;20358;50.272;19.026;2022-12-11T03:48:43;56.22;36.98;78.69;;
76338;Laerm;20358;50.272;19.026;2022-12-11T03:51:55;50.97;36.19;71.08;;
76338;Laerm;20358;50.272;19.026;2022-12-11T03:55:06;45.18;35.63;62.46;;
76338;Laerm;20358;50.272;19.026;2022-12-11T03:58:12;48.02;36.18;73.72;;
76338;Laerm;20358;50.272;19.026;2022-12-11T04:01:19;49.54;35.59;74.54;;
76338;Laerm;20358;50.272;19.026;2022-12-11T04:04:27;51.44;36.16;74.40;;
76338;Laerm;20358;50.272;19.026;2022-12-11T04:07:34;52.57;36.88;76.05;;
76338;Laerm;20358;50.272;19.026;2022-12-11T04:10:41;53.44;37.54;77.13;;
76338;Laerm;20358;50.272;19.026;2022-12-11T04:13:47;60.30;38.35;84.83;;
76338;Laerm;20358;50.272;19.026;2022-12-11T04:17:13;60.74;39.26;80.48;;
76338;Laerm;20358;50.272;19.026;2022-12-11T04:20:40;56.01;38.33;83.80;;
76338;Laerm;20358;50.272;19.026;2022-12-11T04:24:00;48.91;35.99;65.64;;
76338;Laerm;20358;50.272;19.026;2022-12-11T04:27:22;50.44;37.24;72.25;;
76338;Laerm;20358;50.272;19.026;2022-12-11T04:30:48;46.27;36.15;62.99;;
76338;Laerm;20358;50.272;19.026;2022-12-11T04:33:54;46.02;36.76;63.75;;
76338;Laerm;20358;50.272;19.026;2022-12-11T04:37:02;48.34;36.45;66.93;;
76338;Laerm;20358;50.272;19.026;2022-12-11T04:40:13;54.29;37.52;77.21;;
76338;Laerm;20358;50.272;19.026;2022-12-11T04:43:18;55.54;37.20;76.29;;
76338;Laerm;20358;50.272;19.026;2022-12-11T04:46:25;51.92;37.96;70.61;;
76338;Laerm;20358;50.272;19.026;2022-12-11T04:49:30;47.43;36.58;64.88;;
76338;Laerm;20358;50.272;19.026;2022-12-11T04:52:40;49.16;38.24;66.25;;
76338;Laerm;20358;50.272;19.026;2022-12-11T04:55:45;52.42;36.20;66.66;;
76338;Laerm;20358;50.272;19.026;2022-12-11T04:58:51;49.94;36.07;69.47;;
76338;Laerm;20358;50.272;19.026;2022-12-11T05:01:57;49.07;37.67;69.71;;
76338;Laerm;20358;50.272;19.026;2022-12-11T05:05:07;45.62;36.26;65.57;;
76338;Laerm;20358;50.272;19.026;2022-12-11T05:08:17;52.76;34.83;75.73;;
76338;Laerm;20358;50.272;19.026;2022-12-11T05:11:24;50.68;37.83;71.83;;
76338;Laerm;20358;50.272;19.026;2022-12-11T05:14:29;48.45;36.04;67.28;;
76338;Laerm;20358;50.272;19.026;2022-12-11T05:17:36;48.87;35.82;69.96;;
76338;Laerm;20358;50.272;19.026;2022-12-11T05:20:41;53.94;36.05;83.62;;
76338;Laerm;20358;50.272;19.026;2022-12-11T05:23:51;53.51;35.17;76.72;;
76338;Laerm;20358;50.272;19.026;2022-12-11T05:26:56;53.51;36.74;74.28;;
76338;Laerm;20358;50.272;19.026;2022-12-11T05:30:04;54.74;36.16;75.80;;
76338;Laerm;20358;50.272;19.026;2022-12-11T05:33:09;52.69;36.83;77.86;;
76338;Laerm;20358;50.272;19.026;2022-12-11T05:36:20;46.32;35.70;64.92;;
76338;Laerm;20358;50.272;19.026;2022-12-11T05:39:29;47.65;35.74;67.76;;
76338;Laerm;20358;50.272;19.026;2022-12-11T05:42:35;49.45;37.40;69.61;;
76338;Laerm;20358;50.272;19.026;2022-12-11T05:45:40;48.41;36.08;69.71;;
76338;Laerm;20358;50.272;19.026;2022-12-11T05:48:50;46.15;36.57;66.18;;
76338;Laerm;20358;50.272;19.026;2022-12-11T05:51:56;48.14;36.99;70.12;;
76338;Laerm;20358;50.272;19.026;2022-12-11T05:55:06;48.57;37.09;62.79;;
76338;Laerm;20358;50.272;19.026;2022-12-11T05:58:12;49.60;36.02;73.22;;
76338;Laerm;20358;50.272;19.026;2022-12-11T06:01:22;47.88;36.06;69.53;;
76338;Laerm;20358;50.272;19.026;2022-12-11T06:04:28;45.97;36.32;65.55;;
76338;Laerm;20358;50.272;19.026;2022-12-11T06:07:35;47.23;35.74;68.13;;
76338;Laerm;20358;50.272;19.026;2022-12-11T06:10:48;46.94;36.21;62.90;;
76338;Laerm;20358;50.272;19.026;2022-12-11T06:13:56;50.67;38.70;69.21;;
76338;Laerm;20358;50.272;19.026;2022-12-11T06:17:01;52.73;37.76;74.54;;
76338;Laerm;20358;50.272;19.026;2022-12-11T06:20:08;47.34;37.31;67.71;;
76338;Laerm;20358;50.272;19.026;2022-12-11T06:23:14;50.84;35.95;70.59;;
76338;Laerm;20358;50.272;19.026;2022-12-11T06:26:25;49.30;39.91;66.80;;
76338;Laerm;20358;50.272;19.026;2022-12-11T06:29:31;52.31;39.09;78.19;;
76338;Laerm;20358;50.272;19.026;2022-12-11T06:32:37;47.70;37.14;70.96;;
76338;Laerm;20358;50.272;19.026;2022-12-11T06:35:43;50.21;38.16;68.25;;
76338;Laerm;20358;50.272;19.026;2022-12-11T06:38:51;51.06;37.97;67.09;;
76338;Laerm;20358;50.272;19.026;2022-12-11T06:42:00;56.37;40.31;78.72;;
76338;Laerm;20358;50.272;19.026;2022-12-11T06:45:08;48.02;37.67;63.07;;
76338;Laerm;20358;50.272;19.026;2022-12-11T06:48:15;52.97;39.49;75.57;;
76338;Laerm;20358;50.272;19.026;2022-12-11T06:51:22;52.62;38.21;80.00;;
76338;Laerm;20358;50.272;19.026;2022-12-11T06:54:27;52.26;42.60;69.84;;
76338;Laerm;20358;50.272;19.026;2022-12-11T06:57:36;50.40;42.08;67.31;;
76338;Laerm;20358;50.272;19.026;2022-12-11T07:00:42;50.06;37.46;71.25;;
76338;Laerm;20358;50.272;19.026;2022-12-11T07:03:53;54.00;40.20;82.69;;
76338;Laerm;20358;50.272;19.026;2022-12-11T07:07:00;52.13;37.24;71.13;;
76338;Laerm;20358;50.272;19.026;2022-12-11T07:10:08;55.79;40.96;77.96;;
76338;Laerm;20358;50.272;19.026;2022-12-11T07:13:16;52.14;41.17;75.09;;
76338;Laerm;20358;50.272;19.026;2022-12-11T07:16:22;54.26;40.45;75.17;;
76338;Laerm;20358;50.272;19.026;2022-12-11T07:19:28;49.53;39.32;74.66;;
76338;Laerm;20358;50.272;19.026;2022-12-11T07:22:34;47.11;37.61;61.77;;
76338;Laerm;20358;50.272;19.026;2022-12-11T07:25:47;47.62;38.01;71.02;;
76338;Laerm;20358;50.272;19.026;2022-12-11T07:29:00;49.80;38.24;72.79;;
76338;Laerm;20358;50.272;19.026;2022-12-11T07:32:06;50.61;38.44;68.80;;
76338;Laerm;20358;50.272;19.026;2022-12-11T07:35:12;47.70;38.83;72.97;;
76338;Laerm;20358;50.272;19.026;2022-12-11T07:38:18;47.13;38.81;69.29;;
76338;Laerm;20358;50.272;19.026;2022-12-11T07:41:24;52.04;39.33;74.92;;
76338;Laerm;20358;50.272;19.026;2022-12-11T07:44:33;51.74;40.19;72.93;;
76338;Laerm;20358;50.272;19.026;2022-12-11T07:47:42;53.82;42.10;71.61;;
76338;Laerm;20358;50.272;19.026;2022-12-11T07:50:48;48.54;40.38;64.14;;
76338;Laerm;20358;50.272;19.026;2022-12-11T07:53:58;48.85;41.41;69.78;;
76338;Laerm;20358;50.272;19.026;2022-12-11T07:57:04;51.75;41.93;72.51;;
76338;Laerm;20358;50.272;19.026;2022-12-11T08:00:19;51.26;41.63;68.51;;
76338;Laerm;20358;50.272;19.026;2022-12-11T08:03:24;52.68;40.37;78.01;;
76338;Laerm;20358;50.272;19.026;2022-12-11T08:06:33;54.36;39.97;76.30;;
76338;Laerm;20358;50.272;19.026;2022-12-11T08:09:39;51.85;39.41;73.06;;
76338;Laerm;20358;50.272;19.026;2022-12-11T08:12:46;51.04;40.25;71.92;;
76338;Laerm;20358;50.272;19.026;2022-12-11T08:15:54;49.59;39.56;69.61;;
76338;Laerm;20358;50.272;19.026;2022-12-11T08:19:00;50.60;38.97;71.92;;
76338;Laerm;20358;50.272;19.026;2022-12-11T08:22:06;48.29;39.83;69.23;;
76338;Laerm;20358;50.272;19.026;2022-12-11T08:25:26;46.91;38.67;60.78;;
76338;Laerm;20358;50.272;19.026;2022-12-11T08:28:32;48.93;39.11;68.77;;
76338;Laerm;20358;50.272;19.026;2022-12-11T08:31:41;49.90;40.52;73.18;;
76338;Laerm;20358;50.272;19.026;2022-12-11T08:34:47;49.65;39.37;69.27;;
76338;Laerm;20358;50.272;19.026;2022-12-11T08:37:56;46.93;38.70;67.55;;
76338;Laerm;20358;50.272;19.026;2022-12-11T08:41:08;52.55;40.37;83.70;;
76338;Laerm;20358;50.272;19.026;2022-12-11T08:44:14;48.42;41.32;62.79;;
76338;Laerm;20358;50.272;19.026;2022-12-11T08:47:25;48.49;40.59;67.28;;
76338;Laerm;20358;50.272;19.026;2022-12-11T08:50:32;47.17;38.68;68.93;;
76338;Laerm;20358;50.272;19.026;2022-12-11T08:53:38;49.69;39.30;65.86;;
76338;Laerm;20358;50.272;19.026;2022-12-11T08:56:44;48.63;39.76;66.31;;
76338;Laerm;20358;50.272;19.026;2022-12-11T08:59:56;51.41;41.07;70.24;;
76338;Laerm;20358;50.272;19.026;2022-12-11T09:03:05;48.20;40.81;70.18;;
76338;Laerm;20358;50.272;19.026;2022-12-11T09:06:18;56.45;41.38;82.59;;
76338;Laerm;20358;50.272;19.026;2022-12-11T09:09:24;55.92;41.41;80.06;;
76338;Laerm;20358;50.272;19.026;2022-12-11T09:12:32;55.98;42.86;81.35;;
76338;Laerm;20358;50.272;19.026;2022-12-11T09:15:40;56.10;40.12;79.75;;
76338;Laerm;20358;50.272;19.026;2022-12-11T09:18:52;49.30;41.30;67.21;;
76338;Laerm;20358;50.272;19.026;2022-12-11T09:21:59;47.87;40.35;64.55;;
76338;Laerm;20358;50.272;19.026;2022-12-11T09:25:05;48.11;38.76;62.21;;
76338;Laerm;20358;50.272;19.026;2022-12-11T09:28:12;52.95;38.50;77.23;;
76338;Laerm;20358;50.272;19.026;2022-12-11T09:31:22;48.92;39.03;66.40;;
76338;Laerm;20358;50.272;19.026;2022-12-11T09:34:31;49.43;40.78;69.65;;
76338;Laerm;20358;50.272;19.026;2022-12-11T09:37:37;49.69;41.33;63.25;;
76338;Laerm;20358;50.272;19.026;2022-12-11T09:40:43;50.42;40.66;76.91;;
76338;Laerm;20358;50.272;19.026;2022-12-11T09:43:58;52.03;40.27;69.27;;
76338;Laerm;20358;50.272;19.026;2022-12-11T09:47:26;51.37;38.52;78.14;;
76338;Laerm;20358;50.272;19.026;2022-12-11T09:50:39;55.79;41.73;84.94;;
76338;Laerm;20358;50.272;19.026;2022-12-11T09:53:46;53.19;43.38;72.15;;
76338;Laerm;20358;50.272;19.026;2022-12-11T09:57:06;54.30;45.11;73.56;;
76338;Laerm;20358;50.272;19.026;2022-12-11T10:00:26;54.11;41.06;75.70;;
76338;Laerm;20358;50.272;19.026;2022-12-11T10:04:00;53.37;42.41;77.02;;
76338;Laerm;20358;50.272;19.026;2022-12-11T10:07:21;51.18;41.79;71.11;;
76338;Laerm;20358;50.272;19.026;2022-12-11T10:10:42;55.79;44.28;76.09;;
76338;Laerm;20358;50.272;19.026;2022-12-11T10:14:03;53.12;41.05;73.37;;
76338;Laerm;20358;50.272;19.026;2022-12-11T10:17:22;54.10;43.50;73.77;;
76338;Laerm;20358;50.272;19.026;2022-12-11T10:20:34;54.13;44.91;74.61;;
76338;Laerm;20358;50.272;19.026;2022-12-11T10:23:51;52.65;44.07;72.99;;
76338;Laerm;20358;50.272;19.026;2022-12-11T10:27:14;49.07;41.24;69.53;;
76338;Laerm;20358;50.272;19.026;2022-12-11T10:30:25;50.59;43.33;68.65;;
76338;Laerm;20358;50.272;19.026;2022-12-11T10:33:57;49.68;41.29;66.46;;
76338;Laerm;20358;50.272;19.026;2022-12-11T10:37:04;50.67;41.17;68.29;;
76338;Laerm;20358;50.272;19.026;2022-12-11T10:40:15;52.21;42.07;67.85;;
76338;Laerm;20358;50.272;19.026;2022-12-11T10:43:37;51.81;42.39;69.55;;
76338;Laerm;20358;50.272;19.026;2022-12-11T10:46:47;52.69;42.08;74.26;;
76338;Laerm;20358;50.272;19.026;2022-12-11T10:49:57;53.96;41.56;77.41;;
76338;Laerm;20358;50.272;19.026;2022-12-11T10:53:04;53.02;42.41;70.58;;
76338;Laerm;20358;50.272;19.026;2022-12-11T10:56:13;52.04;44.09;71.00;;
76338;Laerm;20358;50.272;19.026;2022-12-11T10:59:30;51.38;41.35;62.87;;
76338;Laerm;20358;50.272;19.026;2022-12-11T11:02:39;51.63;41.71;68.74;;
76338;Laerm;20358;50.272;19.026;2022-12-11T11:05:46;52.72;42.56;71.55;;
76338;Laerm;20358;50.272;19.026;2022-12-11T11:08:55;51.85;43.32;74.82;;
76338;Laerm;20358;50.272;19.026;2022-12-11T11:12:18;51.10;41.58;70.46;;
76338;Laerm;20358;50.272;19.026;2022-12-11T11:15:28;51.92;44.09;74.67;;
76338;Laerm;20358;50.272;19.026;2022-12-11T11:18:36;53.70;43.96;73.64;;
76338;Laerm;20358;50.272;19.026;2022-12-11T11:21:50;50.14;40.79;66.52;;
76338;Laerm;20358;50.272;19.026;2022-12-11T11:24:58;52.22;42.91;78.32;;
76338;Laerm;20358;50.272;19.026;2022-12-11T11:28:21;49.68;41.58;64.52;;
76338;Laerm;20358;50.272;19.026;2022-12-11T11:31:34;52.41;41.40;69.14;;
76338;Laerm;20358;50.272;19.026;2022-12-11T11:34:40;49.08;39.34;64.09;;
76338;Laerm;20358;50.272;19.026;2022-12-11T11:37:59;50.51;40.83;64.09;;
76338;Laerm;20358;50.272;19.026;2022-12-11T11:41:16;53.35;41.76;73.98;;
76338;Laerm;20358;50.272;19.026;2022-12-11T11:44:35;53.81;42.53;71.81;;
76338;Laerm;20358;50.272;19.026;2022-12-11T11:47:51;53.45;45.17;70.54;;
76338;Laerm;20358;50.272;19.026;2022-12-11T11:51:14;50.91;42.96;69.34;;
76338;Laerm;20358;50.272;19.026;2022-12-11T11:54:32;51.74;43.13;71.60;;
76338;Laerm;20358;50.272;19.026;2022-12-11T11:57:47;50.91;42.82;61.97;;
76338;Laerm;20358;50.272;19.026;2022-12-11T12:01:00;51.99;41.53;70.35;;
76338;Laerm;20358;50.272;19.026;2022-12-11T12:04:07;49.79;42.57;65.65;;
76338;Laerm;20358;50.272;19.026;2022-12-11T12:07:31;52.90;43.25;72.14;;
76338;Laerm;20358;50.272;19.026;2022-12-11T12:10:55;52.52;43.41;71.58;;
76338;Laerm;20358;50.272;19.026;2022-12-11T12:14:13;50.36;42.96;65.83;;
76338;Laerm;20358;50.272;19.026;2022-12-11T12:17:52;49.25;40.70;63.09;;
76338;Laerm;20358;50.272;19.026;2022-12-11T12:21:14;49.91;41.67;66.74;;
76338;Laerm;20358;50.272;19.026;2022-12-11T12:24:40;52.59;42.33;71.28;;
76338;Laerm;20358;50.272;19.026;2022-12-11T12:28:00;49.43;40.86;61.50;;
76338;Laerm;20358;50.272;19.026;2022-12-11T12:31:39;48.52;41.11;60.03;;
76338;Laerm;20358;50.272;19.026;2022-12-11T12:35:10;50.04;39.98;71.05;;
76338;Laerm;20358;50.272;19.026;2022-12-11T12:38:32;50.11;43.06;66.01;;
76338;Laerm;20358;50.272;19.026;2022-12-11T12:41:54;50.51;42.01;69.69;;
76338;Laerm;20358;50.272;19.026;2022-12-11T12:45:25;50.87;41.25;64.62;;
76338;Laerm;20358;50.272;19.026;2022-12-11T12:48:33;50.46;41.45;62.10;;
76338;Laerm;20358;50.272;19.026;2022-12-11T12:51:43;50.90;42.65;65.27;;
76338;Laerm;20358;50.272;19.026;2022-12-11T12:54:56;51.27;40.86;67.57;;
76338;Laerm;20358;50.272;19.026;2022-12-11T12:58:27;52.48;42.55;78.82;;
76338;Laerm;20358;50.272;19.026;2022-12-11T13:01:33;53.77;41.02;73.69;;
76338;Laerm;20358;50.272;19.026;2022-12-11T13:04:42;57.08;44.06;75.33;;
76338;Laerm;20358;50.272;19.026;2022-12-11T13:08:04;51.54;41.14;68.45;;
76338;Laerm;20358;50.272;19.026;2022-12-11T13:11:19;49.47;39.66;59.99;;
76338;Laerm;20358;50.272;19.026;2022-12-11T13:14:28;49.69;40.81;65.17;;
76338;Laerm;20358;50.272;19.026;2022-12-11T13:17:37;50.05;40.77;63.02;;
76338;Laerm;20358;50.272;19.026;2022-12-11T13:20:47;48.50;39.12;62.95;;
76338;Laerm;20358;50.272;19.026;2022-12-11T13:24:15;49.83;40.15;62.30;;
76338;Laerm;20358;50.272;19.026;2022-12-11T13:27:25;49.71;41.38;66.39;;
76338;Laerm;20358;50.272;19.026;2022-12-11T13:30:31;49.31;39.70;65.14;;
76338;Laerm;20358;50.272;19.026;2022-12-11T13:33:43;47.80;38.10;58.74;;
76338;Laerm;20358;50.272;19.026;2022-12-11T13:36:53;46.59;38.51;63.38;;
76338;Laerm;20358;50.272;19.026;2022-12-11T13:40:14;47.41;38.19;59.43;;
76338;Laerm;20358;50.272;19.026;2022-12-11T13:43:27;46.55;38.87;61.92;;
76338;Laerm;20358;50.272;19.026;2022-12-11T13:46:37;47.72;39.54;64.37;;
76338;Laerm;20358;50.272;19.026;2022-12-11T13:49:54;45.66;37.15;62.10;;
76338;Laerm;20358;50.272;19.026;2022-12-11T13:53:04;47.32;38.50;63.02;;
76338;Laerm;20358;50.272;19.026;2022-12-11T13:56:18;47.18;38.72;63.71;;
76338;Laerm;20358;50.272;19.026;2022-12-11T13:59:28;46.20;37.92;58.50;;
76338;Laerm;20358;50.272;19.026;2022-12-11T14:02:39;46.03;37.43;65.61;;
76338;Laerm;20358;50.272;19.026;2022-12-11T14:05:45;45.11;37.33;57.15;;
76338;Laerm;20358;50.272;19.026;2022-12-11T14:08:56;46.36;38.64;63.12;;
76338;Laerm;20358;50.272;19.026;2022-12-11T14:12:06;46.40;38.97;65.68;;
76338;Laerm;20358;50.272;19.026;2022-12-11T14:15:14;45.30;38.56;63.95;;
76338;Laerm;20358;50.272;19.026;2022-12-11T14:18:25;45.26;39.23;60.13;;
76338;Laerm;20358;50.272;19.026;2022-12-11T14:21:33;46.87;38.25;64.66;;
76338;Laerm;20358;50.272;19.026;2022-12-11T14:24:49;50.79;39.57;71.32;;
76338;Laerm;20358;50.272;19.026;2022-12-11T14:27:59;46.82;40.39;61.51;;
76338;Laerm;20358;50.272;19.026;2022-12-11T14:31:06;48.26;38.00;63.40;;
76338;Laerm;20358;50.272;19.026;2022-12-11T14:34:18;45.92;38.02;60.11;;
76338;Laerm;20358;50.272;19.026;2022-12-11T14:37:26;45.30;37.26;58.37;;
76338;Laerm;20358;50.272;19.026;2022-12-11T14:40:40;47.17;40.33;60.16;;
76338;Laerm;20358;50.272;19.026;2022-12-11T14:43:56;46.72;40.35;62.84;;
76338;Laerm;20358;50.272;19.026;2022-12-11T14:47:14;50.17;40.59;64.31;;
76338;Laerm;20358;50.272;19.026;2022-12-11T14:50:28;48.74;40.32;71.03;;
76338;Laerm;20358;50.272;19.026;2022-12-11T14:53:44;57.44;40.81;79.43;;
76338;Laerm;20358;50.272;19.026;2022-12-11T14:56:53;47.40;39.96;67.27;;
76338;Laerm;20358;50.272;19.026;2022-12-11T15:00:05;51.12;40.88;72.27;;
76338;Laerm;20358;50.272;19.026;2022-12-11T15:03:23;51.15;41.32;71.42;;
76338;Laerm;20358;50.272;19.026;2022-12-11T15:06:32;48.62;39.11;62.58;;
76338;Laerm;20358;50.272;19.026;2022-12-11T15:09:38;48.32;39.19;66.45;;
76338;Laerm;20358;50.272;19.026;2022-12-11T15:12:45;49.38;42.16;62.97;;
76338;Laerm;20358;50.272;19.026;2022-12-11T15:15:55;52.64;41.17;73.10;;
76338;Laerm;20358;50.272;19.026;2022-12-11T15:19:04;51.72;40.28;73.44;;
76338;Laerm;20358;50.272;19.026;2022-12-11T15:22:15;55.24;42.04;77.69;;
76338;Laerm;20358;50.272;19.026;2022-12-11T15:25:27;50.77;42.59;63.85;;
76338;Laerm;20358;50.272;19.026;2022-12-11T15:28:37;51.77;43.01;67.37;;
76338;Laerm;20358;50.272;19.026;2022-12-11T15:31:58;48.81;41.23;62.71;;
76338;Laerm;20358;50.272;19.026;2022-12-11T15:35:21;50.00;40.27;63.13;;
76338;Laerm;20358;50.272;19.026;2022-12-11T15:38:33;49.48;39.54;65.71;;
76338;Laerm;20358;50.272;19.026;2022-12-11T15:41:41;48.79;40.09;62.76;;
76338;Laerm;20358;50.272;19.026;2022-12-11T15:44:48;50.32;41.67;63.98;;
76338;Laerm;20358;50.272;19.026;2022-12-11T15:47:56;47.76;40.00;65.41;;
76338;Laerm;20358;50.272;19.026;2022-12-11T15:51:04;52.66;41.37;72.50;;
76338;Laerm;20358;50.272;19.026;2022-12-11T15:54:09;50.00;40.54;69.03;;
76338;Laerm;20358;50.272;19.026;2022-12-11T15:57:20;49.10;39.68;69.29;;
76338;Laerm;20358;50.272;19.026;2022-12-11T16:00:27;48.33;38.85;60.53;;
76338;Laerm;20358;50.272;19.026;2022-12-11T16:03:36;49.42;38.80;65.08;;
76338;Laerm;20358;50.272;19.026;2022-12-11T16:06:42;48.32;38.29;58.15;;
76338;Laerm;20358;50.272;19.026;2022-12-11T16:09:49;47.37;38.69;58.29;;
76338;Laerm;20358;50.272;19.026;2022-12-11T16:12:54;49.04;38.23;59.99;;
76338;Laerm;20358;50.272;19.026;2022-12-11T16:16:01;48.63;39.61;63.01;;
76338;Laerm;20358;50.272;19.026;2022-12-11T16:19:10;47.20;37.11;60.80;;
76338;Laerm;20358;50.272;19.026;2022-12-11T16:22:17;48.61;37.67;58.26;;
76338;Laerm;20358;50.272;19.026;2022-12-11T16:25:23;50.26;38.98;65.36;;
76338;Laerm;20358;50.272;19.026;2022-12-11T16:28:29;48.82;41.08;60.65;;
76338;Laerm;20358;50.272;19.026;2022-12-11T16:31:35;48.18;37.96;61.37;;
76338;Laerm;20358;50.272;19.026;2022-12-11T16:34:44;48.62;39.83;64.26;;
76338;Laerm;20358;50.272;19.026;2022-12-11T16:37:51;47.17;38.54;60.74;;
76338;Laerm;20358;50.272;19.026;2022-12-11T16:41:01;49.60;39.75;65.52;;
76338;Laerm;20358;50.272;19.026;2022-12-11T16:44:07;49.30;40.52;66.64;;
76338;Laerm;20358;50.272;19.026;2022-12-11T16:47:13;48.19;40.63;60.62;;
76338;Laerm;20358;50.272;19.026;2022-12-11T16:50:22;47.67;40.69;61.71;;
76338;Laerm;20358;50.272;19.026;2022-12-11T16:53:28;47.88;39.68;64.49;;
76338;Laerm;20358;50.272;19.026;2022-12-11T16:56:34;47.43;40.55;61.76;;
76338;Laerm;20358;50.272;19.026;2022-12-11T16:59:45;49.65;40.03;69.02;;
76338;Laerm;20358;50.272;19.026;2022-12-11T17:02:52;52.18;38.77;78.20;;
76338;Laerm;20358;50.272;19.026;2022-12-11T17:06:05;47.22;39.61;62.35;;
76338;Laerm;20358;50.272;19.026;2022-12-11T17:09:11;46.61;37.72;59.79;;
76338;Laerm;20358;50.272;19.026;2022-12-11T17:12:18;48.51;37.76;64.47;;
76338;Laerm;20358;50.272;19.026;2022-12-11T17:15:28;47.23;40.03;68.33;;
76338;Laerm;20358;50.272;19.026;2022-12-11T17:18:36;47.74;38.90;64.84;;
76338;Laerm;20358;50.272;19.026;2022-12-11T17:21:44;45.96;38.28;59.62;;
76338;Laerm;20358;50.272;19.026;2022-12-11T17:24:54;46.67;37.12;63.92;;
76338;Laerm;20358;50.272;19.026;2022-12-11T17:27:59;46.37;38.49;58.66;;
76338;Laerm;20358;50.272;19.026;2022-12-11T17:31:08;47.90;39.38;63.90;;
76338;Laerm;20358;50.272;19.026;2022-12-11T17:34:14;46.39;38.17;64.75;;